Terminal Aerodrome Forecast
Issued by NWS

Home | Current Version | Previous Version | Text Only | Print | Product List | Glossary On
Versions: 1 2 3 4 5 6 7 8 9 10 11 12 13
000
FTUS45 KABQ 251134
TAFGUP
TAF
KGUP 251134Z 2512/2612 VRB04KT P6SM BKN130
     FM251500 VRB05KT P6SM FEW120
     FM251900 09008KT P6SM VCSH BKN110
     FM252100 06008KT P6SM VCTS SCT080CB BKN120
     FM260000 15008KT P6SM VCSH BKN090
     FM260600 VRB05KT P6SM BKN100=

USA.gov is the U.S. government's official web portal to all federal, state and local government web resources and services.